sensor_id;sensor_type;location;lat;lon;timestamp;pressure;altitude;pressure_sealevel;temperature;humidity
57086;BME280;42964;42.910;23.792;2024-03-29T00:01:11;97340.44;;;15.50;35.81
57086;BME280;42964;42.910;23.792;2024-03-29T00:06:09;97328.06;;;15.25;35.96
57086;BME280;42964;42.910;23.792;2024-03-29T00:11:08;97339.13;;;15.35;36.72
57086;BME280;42964;42.910;23.792;2024-03-29T00:16:07;97313.00;;;15.01;36.58
57086;BME280;42964;42.910;23.792;2024-03-29T00:21:06;97334.03;;;14.96;36.94
57086;BME280;42964;42.910;23.792;2024-03-29T00:26:05;97300.16;;;14.56;37.18
57086;BME280;42964;42.910;23.792;2024-03-29T00:31:06;97311.47;;;14.56;37.46
57086;BME280;42964;42.910;23.792;2024-03-29T00:36:04;97346.50;;;14.48;37.64
57086;BME280;42964;42.910;23.792;2024-03-29T00:41:03;97292.13;;;14.29;37.71
57086;BME280;42964;42.910;23.792;2024-03-29T00:46:02;97305.81;;;14.37;38.17
57086;BME280;42964;42.910;23.792;2024-03-29T00:51:01;97323.25;;;14.37;39.02
57086;BME280;42964;42.910;23.792;2024-03-29T00:56:00;97293.72;;;13.96;39.08
57086;BME280;42964;42.910;23.792;2024-03-29T01:00:59;97331.13;;;13.96;39.41
57086;BME280;42964;42.910;23.792;2024-03-29T01:05:58;97360.69;;;14.36;38.96
57086;BME280;42964;42.910;23.792;2024-03-29T01:10:57;97348.22;;;14.49;38.75
57086;BME280;42964;42.910;23.792;2024-03-29T01:15:56;97356.13;;;14.46;38.89
57086;BME280;42964;42.910;23.792;2024-03-29T01:20:55;97270.13;;;14.01;38.72
57086;BME280;42964;42.910;23.792;2024-03-29T01:25:54;97330.44;;;14.27;39.38
57086;BME280;42964;42.910;23.792;2024-03-29T01:30:53;97290.31;;;13.94;39.25
57086;BME280;42964;42.910;23.792;2024-03-29T01:35:53;97352.81;;;14.37;39.43
57086;BME280;42964;42.910;23.792;2024-03-29T01:40:52;97335.38;;;14.39;38.68
57086;BME280;42964;42.910;23.792;2024-03-29T01:45:53;97346.97;;;14.65;38.76
57086;BME280;42964;42.910;23.792;2024-03-29T01:50:55;97353.56;;;14.81;38.54
57086;BME280;42964;42.910;23.792;2024-03-29T01:55:54;97289.94;;;14.47;38.97
57086;BME280;42964;42.910;23.792;2024-03-29T02:00:57;97360.97;;;14.61;38.47
57086;BME280;42964;42.910;23.792;2024-03-29T02:05:58;97333.50;;;14.45;38.74
57086;BME280;42964;42.910;23.792;2024-03-29T02:10:58;97307.16;;;14.18;38.75
57086;BME280;42964;42.910;23.792;2024-03-29T02:15:57;97399.09;;;14.71;39.22
57086;BME280;42964;42.910;23.792;2024-03-29T02:20:56;97370.78;;;14.51;38.83
57086;BME280;42964;42.910;23.792;2024-03-29T02:25:55;97406.94;;;14.68;39.22
57086;BME280;42964;42.910;23.792;2024-03-29T02:30:54;97422.44;;;14.77;39.29
57086;BME280;42964;42.910;23.792;2024-03-29T02:35:53;97430.34;;;14.74;39.08
57086;BME280;42964;42.910;23.792;2024-03-29T02:40:52;97460.00;;;14.73;39.17
57086;BME280;42964;42.910;23.792;2024-03-29T02:45:51;97463.50;;;14.71;39.45
57086;BME280;42964;42.910;23.792;2024-03-29T02:50:50;97442.38;;;14.41;39.22
57086;BME280;42964;42.910;23.792;2024-03-29T02:55:49;97393.47;;;14.09;39.81
57086;BME280;42964;42.910;23.792;2024-03-29T03:00:48;97466.53;;;14.51;39.16
57086;BME280;42964;42.910;23.792;2024-03-29T03:05:47;97271.66;;;13.27;39.55
57086;BME280;42964;42.910;23.792;2024-03-29T03:10:47;97488.44;;;14.44;39.55
57086;BME280;42964;42.910;23.792;2024-03-29T03:15:56;97496.19;;;14.48;39.91
57086;BME280;42964;42.910;23.792;2024-03-29T03:20:56;97487.63;;;14.40;39.86
57086;BME280;42964;42.910;23.792;2024-03-29T03:26:00;97445.63;;;14.09;40.17
57086;BME280;42964;42.910;23.792;2024-03-29T03:31:00;97473.16;;;14.24;40.37
57086;BME280;42964;42.910;23.792;2024-03-29T03:35:59;97514.06;;;14.25;40.23
57086;BME280;42964;42.910;23.792;2024-03-29T03:40:58;97433.28;;;13.73;40.71
57086;BME280;42964;42.910;23.792;2024-03-29T03:46:00;97529.66;;;14.26;40.79
57086;BME280;42964;42.910;23.792;2024-03-29T03:51:00;97515.16;;;14.13;41.03
57086;BME280;42964;42.910;23.792;2024-03-29T03:55:59;97550.50;;;14.29;40.35
57086;BME280;42964;42.910;23.792;2024-03-29T04:01:03;97486.66;;;14.02;40.47
57086;BME280;42964;42.910;23.792;2024-03-29T04:06:03;97536.41;;;14.38;40.23
57086;BME280;42964;42.910;23.792;2024-03-29T04:11:03;97571.75;;;14.54;40.02
57086;BME280;42964;42.910;23.792;2024-03-29T04:16:03;97573.47;;;14.57;39.46
57086;BME280;42964;42.910;23.792;2024-03-29T04:21:03;97576.84;;;14.62;39.67
57086;BME280;42964;42.910;23.792;2024-03-29T04:26:03;97562.88;;;14.63;39.32
57086;BME280;42964;42.910;23.792;2024-03-29T04:31:02;97601.59;;;14.88;39.08
57086;BME280;42964;42.910;23.792;2024-03-29T04:36:03;97615.53;;;14.88;39.42
57086;BME280;42964;42.910;23.792;2024-03-29T04:41:02;97532.16;;;14.32;39.71
57086;BME280;42964;42.910;23.792;2024-03-29T04:46:09;97632.06;;;14.89;39.23
57086;BME280;42964;42.910;23.792;2024-03-29T04:51:09;97654.69;;;14.90;39.67
57086;BME280;42964;42.910;23.792;2024-03-29T04:56:08;97633.16;;;14.78;39.87
57086;BME280;42964;42.910;23.792;2024-03-29T05:01:07;97671.81;;;15.04;39.68
57086;BME280;42964;42.910;23.792;2024-03-29T05:06:06;97637.16;;;14.95;39.44
57086;BME280;42964;42.910;23.792;2024-03-29T05:11:05;97635.25;;;15.03;38.97
57086;BME280;42964;42.910;23.792;2024-03-29T05:16:06;97610.06;;;14.99;38.94
57086;BME280;42964;42.910;23.792;2024-03-29T05:21:05;97695.09;;;15.57;39.00
57086;BME280;42964;42.910;23.792;2024-03-29T05:26:04;97538.34;;;14.73;38.00
57086;BME280;42964;42.910;23.792;2024-03-29T05:31:11;97700.44;;;15.93;37.91
57086;BME280;42964;42.910;23.792;2024-03-29T05:36:12;97650.09;;;15.82;37.80
57086;BME280;42964;42.910;23.792;2024-03-29T05:41:12;97681.59;;;16.15;37.10
57086;BME280;42964;42.910;23.792;2024-03-29T05:46:10;97708.56;;;16.52;37.53
57086;BME280;42964;42.910;23.792;2024-03-29T05:51:09;97666.03;;;16.43;37.64
57086;BME280;42964;42.910;23.792;2024-03-29T05:56:08;97668.19;;;16.61;36.50
57086;BME280;42964;42.910;23.792;2024-03-29T06:01:07;97711.69;;;17.01;36.60
57086;BME280;42964;42.910;23.792;2024-03-29T06:06:06;97670.03;;;16.90;37.06
57086;BME280;42964;42.910;23.792;2024-03-29T06:11:06;97712.31;;;17.41;36.90
57086;BME280;42964;42.910;23.792;2024-03-29T06:16:05;97721.47;;;17.57;36.37
57086;BME280;42964;42.910;23.792;2024-03-29T06:21:22;97710.50;;;17.72;35.94
57086;BME280;42964;42.910;23.792;2024-03-29T06:26:21;97679.53;;;17.55;35.39
57086;BME280;42964;42.910;23.792;2024-03-29T06:31:20;97735.66;;;18.09;34.62
57086;BME280;42964;42.910;23.792;2024-03-29T06:36:19;97739.41;;;18.29;34.47
57086;BME280;42964;42.910;23.792;2024-03-29T06:41:18;97754.34;;;18.27;34.30
57086;BME280;42964;42.910;23.792;2024-03-29T06:46:17;97753.84;;;18.42;33.58
57086;BME280;42964;42.910;23.792;2024-03-29T06:51:16;97747.34;;;18.54;34.16
57086;BME280;42964;42.910;23.792;2024-03-29T06:56:15;97728.28;;;18.47;34.80
57086;BME280;42964;42.910;23.792;2024-03-29T07:01:14;97747.03;;;18.63;34.64
57086;BME280;42964;42.910;23.792;2024-03-29T07:06:13;97734.72;;;18.65;34.64
57086;BME280;42964;42.910;23.792;2024-03-29T07:11:12;97618.06;;;17.91;34.15
57086;BME280;42964;42.910;23.792;2024-03-29T07:16:11;97666.88;;;18.50;34.48
57086;BME280;42964;42.910;23.792;2024-03-29T07:21:10;97722.06;;;19.01;34.08
57086;BME280;42964;42.910;23.792;2024-03-29T07:26:09;97762.38;;;19.27;33.62
57086;BME280;42964;42.910;23.792;2024-03-29T07:31:10;97777.03;;;19.34;33.25
57086;BME280;42964;42.910;23.792;2024-03-29T07:36:09;97752.91;;;19.47;32.99
57086;BME280;42964;42.910;23.792;2024-03-29T07:41:10;97762.97;;;19.60;32.36
57086;BME280;42964;42.910;23.792;2024-03-29T07:46:09;97721.03;;;19.56;32.28
57086;BME280;42964;42.910;23.792;2024-03-29T07:51:08;97740.94;;;19.63;32.23
57086;BME280;42964;42.910;23.792;2024-03-29T07:56:07;97722.00;;;19.52;32.30
57086;BME280;42964;42.910;23.792;2024-03-29T08:01:06;97756.47;;;19.93;31.82
57086;BME280;42964;42.910;23.792;2024-03-29T08:06:05;97762.16;;;20.04;32.20
57086;BME280;42964;42.910;23.792;2024-03-29T08:11:04;97748.59;;;20.15;30.92
57086;BME280;42964;42.910;23.792;2024-03-29T08:16:03;97758.59;;;20.50;30.70
57086;BME280;42964;42.910;23.792;2024-03-29T08:21:03;97730.06;;;20.60;30.53
57086;BME280;42964;42.910;23.792;2024-03-29T08:26:02;97666.59;;;20.22;29.68
57086;BME280;42964;42.910;23.792;2024-03-29T08:31:03;97717.31;;;20.27;29.58
57086;BME280;42964;42.910;23.792;2024-03-29T08:36:04;97686.75;;;20.23;29.36
57086;BME280;42964;42.910;23.792;2024-03-29T08:41:04;97705.03;;;20.70;29.48
57086;BME280;42964;42.910;23.792;2024-03-29T08:46:03;97700.69;;;20.90;29.26
57086;BME280;42964;42.910;23.792;2024-03-29T08:51:02;97701.53;;;20.90;29.49
57086;BME280;42964;42.910;23.792;2024-03-29T08:56:01;97675.63;;;20.59;29.59
57086;BME280;42964;42.910;23.792;2024-03-29T09:01:00;97708.34;;;20.76;29.38
57086;BME280;42964;42.910;23.792;2024-03-29T09:06:03;97714.13;;;21.04;29.81
57086;BME280;42964;42.910;23.792;2024-03-29T09:11:02;97630.28;;;20.51;30.00
57086;BME280;42964;42.910;23.792;2024-03-29T09:16:02;97698.28;;;21.04;30.41
57086;BME280;42964;42.910;23.792;2024-03-29T09:21:01;97669.16;;;20.87;30.19
57086;BME280;42964;42.910;23.792;2024-03-29T09:26:04;97694.72;;;21.26;30.21
57086;BME280;42964;42.910;23.792;2024-03-29T09:31:03;97679.53;;;21.31;29.38
57086;BME280;42964;42.910;23.792;2024-03-29T09:36:02;97671.50;;;21.13;28.80
57086;BME280;42964;42.910;23.792;2024-03-29T09:41:10;97684.25;;;21.24;29.05
57086;BME280;42964;42.910;23.792;2024-03-29T09:46:10;97669.44;;;21.20;29.06
57086;BME280;42964;42.910;23.792;2024-03-29T09:51:09;97644.91;;;21.18;28.83
57086;BME280;42964;42.910;23.792;2024-03-29T09:56:09;97656.84;;;21.27;28.07
57086;BME280;42964;42.910;23.792;2024-03-29T10:01:08;97644.16;;;21.54;28.08
57086;BME280;42964;42.910;23.792;2024-03-29T10:06:09;97622.66;;;21.43;28.34
57086;BME280;42964;42.910;23.792;2024-03-29T10:11:11;97627.19;;;21.60;28.08
57086;BME280;42964;42.910;23.792;2024-03-29T10:16:10;97602.75;;;21.73;27.89
57086;BME280;42964;42.910;23.792;2024-03-29T10:21:09;97608.22;;;21.88;28.23
57086;BME280;42964;42.910;23.792;2024-03-29T10:26:09;97602.41;;;21.62;28.26
57086;BME280;42964;42.910;23.792;2024-03-29T10:31:08;97584.75;;;21.63;27.97
57086;BME280;42964;42.910;23.792;2024-03-29T10:36:07;97604.13;;;22.00;27.93
57086;BME280;42964;42.910;23.792;2024-03-29T10:41:08;97622.44;;;22.39;28.01
57086;BME280;42964;42.910;23.792;2024-03-29T10:46:08;97532.22;;;22.10;28.56
57086;BME280;42964;42.910;23.792;2024-03-29T10:51:08;97561.44;;;22.42;27.09
57086;BME280;42964;42.910;23.792;2024-03-29T10:56:11;97550.16;;;22.38;27.79
57086;BME280;42964;42.910;23.792;2024-03-29T11:01:11;97603.25;;;22.86;27.76
57086;BME280;42964;42.910;23.792;2024-03-29T11:06:13;97598.09;;;23.00;27.22
57086;BME280;42964;42.910;23.792;2024-03-29T11:11:14;97572.16;;;22.74;27.38
57086;BME280;42964;42.910;23.792;2024-03-29T11:16:14;97561.69;;;23.04;26.96
57086;BME280;42964;42.910;23.792;2024-03-29T11:21:16;97526.34;;;22.89;26.73
57086;BME280;42964;42.910;23.792;2024-03-29T11:26:17;97534.88;;;22.94;27.10
57086;BME280;42964;42.910;23.792;2024-03-29T11:31:17;97540.19;;;23.10;26.70
57086;BME280;42964;42.910;23.792;2024-03-29T11:36:24;97584.09;;;23.46;25.75
57086;BME280;42964;42.910;23.792;2024-03-29T11:41:25;97543.19;;;23.68;26.93
57086;BME280;42964;42.910;23.792;2024-03-29T11:46:25;97535.91;;;23.71;25.76
57086;BME280;42964;42.910;23.792;2024-03-29T11:51:24;97570.78;;;24.10;26.20
57086;BME280;42964;42.910;23.792;2024-03-29T11:56:24;97553.38;;;24.05;25.83
57086;BME280;42964;42.910;23.792;2024-03-29T12:01:24;97555.97;;;24.21;25.96
57086;BME280;42964;42.910;23.792;2024-03-29T12:06:23;97537.34;;;24.07;25.96
57086;BME280;42964;42.910;23.792;2024-03-29T12:11:22;97551.00;;;24.31;25.95
57086;BME280;42964;42.910;23.792;2024-03-29T12:16:22;97469.19;;;24.09;25.56
57086;BME280;42964;42.910;23.792;2024-03-29T12:21:21;97509.28;;;24.19;25.99
57086;BME280;42964;42.910;23.792;2024-03-29T12:26:20;97496.25;;;24.30;24.97
57086;BME280;42964;42.910;23.792;2024-03-29T12:31:21;97454.22;;;24.24;24.72
57086;BME280;42964;42.910;23.792;2024-03-29T12:36:24;97527.56;;;24.97;25.37
57086;BME280;42964;42.910;23.792;2024-03-29T12:41:25;97532.16;;;24.79;25.78
57086;BME280;42964;42.910;23.792;2024-03-29T12:46:25;97538.53;;;24.90;24.01
57086;BME280;42964;42.910;23.792;2024-03-29T12:51:27;97531.34;;;24.93;23.85
57086;BME280;42964;42.910;23.792;2024-03-29T12:56:28;97500.44;;;24.92;24.34
57086;BME280;42964;42.910;23.792;2024-03-29T13:01:26;97489.16;;;24.74;24.24
57086;BME280;42964;42.910;23.792;2024-03-29T13:06:25;97506.50;;;24.94;24.13
57086;BME280;42964;42.910;23.792;2024-03-29T13:11:24;97362.59;;;24.33;24.04
57086;BME280;42964;42.910;23.792;2024-03-29T13:16:24;97453.53;;;24.92;23.73
57086;BME280;42964;42.910;23.792;2024-03-29T13:21:23;97520.69;;;25.63;22.91
57086;BME280;42964;42.910;23.792;2024-03-29T13:26:22;97486.78;;;25.52;22.98
57086;BME280;42964;42.910;23.792;2024-03-29T13:31:21;97470.06;;;25.64;22.56
57086;BME280;42964;42.910;23.792;2024-03-29T13:36:21;97517.97;;;26.43;21.92
57086;BME280;42964;42.910;23.792;2024-03-29T13:41:20;97512.75;;;26.67;21.77
57086;BME280;42964;42.910;23.792;2024-03-29T13:46:19;97504.75;;;26.67;21.15
57086;BME280;42964;42.910;23.792;2024-03-29T13:51:18;97501.03;;;26.82;21.04
57086;BME280;42964;42.910;23.792;2024-03-29T13:56:17;97480.00;;;26.28;21.01
57086;BME280;42964;42.910;23.792;2024-03-29T14:01:16;97500.81;;;26.60;20.45
57086;BME280;42964;42.910;23.792;2024-03-29T14:06:15;97478.97;;;26.80;21.18
57086;BME280;42964;42.910;23.792;2024-03-29T14:11:14;97502.31;;;26.89;20.43
57086;BME280;42964;42.910;23.792;2024-03-29T14:16:13;97497.41;;;26.57;20.54
57086;BME280;42964;42.910;23.792;2024-03-29T14:21:12;97470.84;;;26.45;20.31
57086;BME280;42964;42.910;23.792;2024-03-29T14:26:11;97468.06;;;26.21;20.38
57086;BME280;42964;42.910;23.792;2024-03-29T14:31:10;97414.31;;;25.50;20.63
57086;BME280;42964;42.910;23.792;2024-03-29T14:36:09;97491.31;;;26.04;20.89
57086;BME280;42964;42.910;23.792;2024-03-29T14:41:08;97445.25;;;25.91;20.50
57086;BME280;42964;42.910;23.792;2024-03-29T14:46:07;97464.63;;;26.19;20.61
57086;BME280;42964;42.910;23.792;2024-03-29T14:51:06;97471.69;;;26.20;19.93
57086;BME280;42964;42.910;23.792;2024-03-29T14:56:05;97472.94;;;26.52;21.06
57086;BME280;42964;42.910;23.792;2024-03-29T15:01:04;97457.19;;;26.36;20.17
57086;BME280;42964;42.910;23.792;2024-03-29T15:06:04;97491.38;;;25.90;23.95
57086;BME280;42964;42.910;23.792;2024-03-29T15:11:03;97497.59;;;24.95;25.08
57086;BME280;42964;42.910;23.792;2024-03-29T15:16:02;97484.50;;;24.77;25.95
57086;BME280;42964;42.910;23.792;2024-03-29T15:21:02;97489.91;;;24.33;27.03
57086;BME280;42964;42.910;23.792;2024-03-29T15:26:03;97539.06;;;24.38;27.57
57086;BME280;42964;42.910;23.792;2024-03-29T15:31:09;97513.94;;;23.85;27.77
57086;BME280;42964;42.910;23.792;2024-03-29T15:36:09;97476.31;;;23.32;28.34
57086;BME280;42964;42.910;23.792;2024-03-29T15:41:11;97522.94;;;23.35;28.02
57086;BME280;42964;42.910;23.792;2024-03-29T15:46:11;97509.69;;;23.35;28.56
57086;BME280;42964;42.910;23.792;2024-03-29T15:51:10;97559.00;;;23.37;28.92
57086;BME280;42964;42.910;23.792;2024-03-29T15:56:11;97556.94;;;23.42;28.94
57086;BME280;42964;42.910;23.792;2024-03-29T16:01:10;97576.25;;;23.44;29.43
57086;BME280;42964;42.910;23.792;2024-03-29T16:06:11;97578.72;;;23.00;29.58
57086;BME280;42964;42.910;23.792;2024-03-29T16:11:10;97579.69;;;22.82;29.69
57086;BME280;42964;42.910;23.792;2024-03-29T16:16:09;97431.34;;;21.85;30.08
57086;BME280;42964;42.910;23.792;2024-03-29T16:21:08;97540.03;;;22.13;30.49
57086;BME280;42964;42.910;23.792;2024-03-29T16:26:07;97584.25;;;22.10;31.10
57086;BME280;42964;42.910;23.792;2024-03-29T16:31:06;97577.81;;;21.96;31.08
57086;BME280;42964;42.910;23.792;2024-03-29T16:36:05;97525.28;;;21.73;31.09
57086;BME280;42964;42.910;23.792;2024-03-29T16:41:04;97583.25;;;21.93;31.57
57086;BME280;42964;42.910;23.792;2024-03-29T16:46:03;97602.75;;;21.91;31.50
57086;BME280;42964;42.910;23.792;2024-03-29T16:51:02;97558.19;;;21.48;31.78
57086;BME280;42964;42.910;23.792;2024-03-29T16:56:01;97459.28;;;20.81;32.15
57086;BME280;42964;42.910;23.792;2024-03-29T17:01:01;97541.25;;;21.14;32.51
57086;BME280;42964;42.910;23.792;2024-03-29T17:06:00;97587.63;;;21.20;33.04
57086;BME280;42964;42.910;23.792;2024-03-29T17:10:59;97594.16;;;20.92;34.43
57086;BME280;42964;42.910;23.792;2024-03-29T17:15:58;97425.09;;;19.61;34.61
57086;BME280;42964;42.910;23.792;2024-03-29T17:20:56;97563.09;;;20.19;35.11
57086;BME280;42964;42.910;23.792;2024-03-29T17:25:55;97572.72;;;19.99;35.38
57086;BME280;42964;42.910;23.792;2024-03-29T17:30:54;97629.84;;;19.97;35.25
57086;BME280;42964;42.910;23.792;2024-03-29T17:35:53;97580.59;;;19.55;36.14
57086;BME280;42964;42.910;23.792;2024-03-29T17:40:52;97596.59;;;19.51;36.62
57086;BME280;42964;42.910;23.792;2024-03-29T17:45:51;97572.41;;;19.19;36.82
57086;BME280;42964;42.910;23.792;2024-03-29T17:50:50;97630.25;;;19.42;37.11
57086;BME280;42964;42.910;23.792;2024-03-29T17:55:49;97587.06;;;19.02;37.76
57086;BME280;42964;42.910;23.792;2024-03-29T18:00:48;97624.56;;;19.08;37.89
57086;BME280;42964;42.910;23.792;2024-03-29T18:05:47;97629.34;;;18.96;38.22
57086;BME280;42964;42.910;23.792;2024-03-29T18:10:46;97569.09;;;18.42;39.05
57086;BME280;42964;42.910;23.792;2024-03-29T18:15:46;97598.81;;;18.44;39.58
57086;BME280;42964;42.910;23.792;2024-03-29T18:20:46;97617.66;;;18.30;39.35
57086;BME280;42964;42.910;23.792;2024-03-29T18:25:45;97625.25;;;18.12;40.31
57086;BME280;42964;42.910;23.792;2024-03-29T18:30:47;97621.66;;;17.88;41.36
57086;BME280;42964;42.910;23.792;2024-03-29T18:35:47;97638.41;;;17.84;41.76
57086;BME280;42964;42.910;23.792;2024-03-29T18:40:46;97605.66;;;17.40;42.00
57086;BME280;42964;42.910;23.792;2024-03-29T18:45:45;97630.91;;;17.44;42.54
57086;BME280;42964;42.910;23.792;2024-03-29T18:50:55;97559.25;;;16.84;42.97
57086;BME280;42964;42.910;23.792;2024-03-29T18:55:58;97581.13;;;16.84;43.89
57086;BME280;42964;42.910;23.792;2024-03-29T19:00:58;97649.53;;;17.05;44.02
57086;BME280;42964;42.910;23.792;2024-03-29T19:05:57;97601.75;;;16.64;44.49
57086;BME280;42964;42.910;23.792;2024-03-29T19:10:56;97641.53;;;16.77;45.12
57086;BME280;42964;42.910;23.792;2024-03-29T19:15:55;97636.97;;;16.54;45.68
57086;BME280;42964;42.910;23.792;2024-03-29T19:20:54;97600.19;;;16.24;45.82
57086;BME280;42964;42.910;23.792;2024-03-29T19:25:53;97626.25;;;16.28;46.03
57086;BME280;42964;42.910;23.792;2024-03-29T19:30:52;97613.75;;;16.05;46.45
57086;BME280;42964;42.910;23.792;2024-03-29T19:35:50;97633.13;;;15.98;46.84
57086;BME280;42964;42.910;23.792;2024-03-29T19:40:49;97551.63;;;15.40;48.10
57086;BME280;42964;42.910;23.792;2024-03-29T19:46:01;97609.75;;;15.53;48.59
57086;BME280;42964;42.910;23.792;2024-03-29T19:51:00;97571.16;;;15.25;48.87
57086;BME280;42964;42.910;23.792;2024-03-29T19:55:59;97625.25;;;15.61;48.52
57086;BME280;42964;42.910;23.792;2024-03-29T20:00:59;97635.91;;;15.53;49.15
57086;BME280;42964;42.910;23.792;2024-03-29T20:05:58;97641.28;;;15.47;48.96
57086;BME280;42964;42.910;23.792;2024-03-29T20:10:56;97577.94;;;14.94;49.80
57086;BME280;42964;42.910;23.792;2024-03-29T20:15:55;97607.59;;;14.93;51.39
57086;BME280;42964;42.910;23.792;2024-03-29T20:20:54;97553.38;;;14.60;50.89
57086;BME280;42964;42.910;23.792;2024-03-29T20:25:54;97548.03;;;14.67;51.10
57086;BME280;42964;42.910;23.792;2024-03-29T20:30:53;97624.78;;;15.03;51.46
57086;BME280;42964;42.910;23.792;2024-03-29T20:35:52;97605.44;;;14.71;51.74
57086;BME280;42964;42.910;23.792;2024-03-29T20:40:51;97574.44;;;14.51;52.29
57086;BME280;42964;42.910;23.792;2024-03-29T20:45:53;97587.56;;;14.47;52.66
57086;BME280;42964;42.910;23.792;2024-03-29T20:50:58;97607.63;;;14.46;53.42
57086;BME280;42964;42.910;23.792;2024-03-29T20:56:04;97625.91;;;14.45;53.81
57086;BME280;42964;42.910;23.792;2024-03-29T21:01:03;97612.09;;;14.39;53.37
57086;BME280;42964;42.910;23.792;2024-03-29T21:06:02;97608.94;;;14.20;53.51
57086;BME280;42964;42.910;23.792;2024-03-29T21:11:01;97642.81;;;14.24;54.90
57086;BME280;42964;42.910;23.792;2024-03-29T21:16:01;97570.72;;;13.68;55.01
57086;BME280;42964;42.910;23.792;2024-03-29T21:21:01;97654.81;;;13.81;55.92
57086;BME280;42964;42.910;23.792;2024-03-29T21:25:59;97608.41;;;13.44;56.34
57086;BME280;42964;42.910;23.792;2024-03-29T21:30:58;97605.22;;;13.25;57.13
57086;BME280;42964;42.910;23.792;2024-03-29T21:35:57;97623.44;;;13.27;57.54
57086;BME280;42964;42.910;23.792;2024-03-29T21:40:56;97603.75;;;13.06;57.43
57086;BME280;42964;42.910;23.792;2024-03-29T21:45:55;97599.50;;;12.99;57.84
57086;BME280;42964;42.910;23.792;2024-03-29T21:50:54;97660.03;;;13.18;58.19
57086;BME280;42964;42.910;23.792;2024-03-29T21:55:53;97620.41;;;12.94;59.28
57086;BME280;42964;42.910;23.792;2024-03-29T22:00:52;97651.53;;;13.03;59.35
57086;BME280;42964;42.910;23.792;2024-03-29T22:05:51;97641.34;;;12.86;59.49
57086;BME280;42964;42.910;23.792;2024-03-29T22:10:52;97612.00;;;12.70;59.13
57086;BME280;42964;42.910;23.792;2024-03-29T22:15:51;97585.47;;;12.38;59.80
57086;BME280;42964;42.910;23.792;2024-03-29T22:20:50;97589.00;;;12.32;59.83
57086;BME280;42964;42.910;23.792;2024-03-29T22:25:49;97654.66;;;12.60;60.11
57086;BME280;42964;42.910;23.792;2024-03-29T22:30:48;97583.13;;;12.08;61.00
57086;BME280;42964;42.910;23.792;2024-03-29T22:35:47;97594.38;;;12.12;60.90
57086;BME280;42964;42.910;23.792;2024-03-29T22:40:47;97614.19;;;12.30;61.05
57086;BME280;42964;42.910;23.792;2024-03-29T22:45:46;97609.94;;;12.17;61.67
57086;BME280;42964;42.910;23.792;2024-03-29T22:50:48;97641.78;;;12.45;61.45
57086;BME280;42964;42.910;23.792;2024-03-29T22:55:48;97644.53;;;12.31;62.47
57086;BME280;42964;42.910;23.792;2024-03-29T23:00:47;97660.97;;;12.35;62.38
57086;BME280;42964;42.910;23.792;2024-03-29T23:05:46;97639.41;;;12.17;61.90
57086;BME280;42964;42.910;23.792;2024-03-29T23:10:45;97618.84;;;11.89;62.32
57086;BME280;42964;42.910;23.792;2024-03-29T23:15:50;97668.03;;;12.16;62.02
57086;BME280;42964;42.910;23.792;2024-03-29T23:20:51;97675.97;;;11.99;63.53
57086;BME280;42964;42.910;23.792;2024-03-29T23:25:50;97624.25;;;11.63;62.98
57086;BME280;42964;42.910;23.792;2024-03-29T23:30:49;97639.03;;;11.57;64.72
57086;BME280;42964;42.910;23.792;2024-03-29T23:35:51;97672.72;;;11.72;65.80
57086;BME280;42964;42.910;23.792;2024-03-29T23:40:58;97672.72;;;11.72;66.30
57086;BME280;42964;42.910;23.792;2024-03-29T23:50:58;97606.25;;;11.37;66.34
57086;BME280;42964;42.910;23.792;2024-03-29T23:55:58;97571.75;;;11.18;65.81
